createdAt,value
2019-02-21T00:02:08.874Z,17.23
2019-02-21T00:04:37.191Z,17.30
2019-02-21T00:07:05.526Z,17.50
2019-02-21T00:09:33.816Z,18.30
2019-02-21T00:12:02.146Z,18.00
2019-02-21T00:14:30.425Z,17.93
2019-02-21T00:16:58.900Z,17.43
2019-02-21T00:19:27.159Z,17.53
2019-02-21T00:21:55.489Z,18.00
2019-02-21T00:24:23.791Z,17.53
2019-02-21T00:26:52.060Z,18.10
2019-02-21T00:29:20.394Z,18.40
2019-02-21T00:31:48.679Z,18.83
2019-02-21T00:34:16.968Z,20.33
2019-02-21T00:36:45.543Z,20.73
2019-02-21T00:39:13.825Z,19.50
2019-02-21T00:41:42.143Z,19.57
2019-02-21T00:44:10.443Z,20.57
2019-02-21T00:46:38.743Z,20.33
2019-02-21T00:49:07.056Z,20.10
2019-02-21T00:51:35.334Z,18.23
2019-02-21T00:54:03.614Z,19.80
2019-02-21T00:56:31.910Z,20.67
2019-02-21T00:59:00.226Z,19.70
2019-02-21T01:01:28.669Z,20.87
2019-02-21T01:03:56.933Z,19.73
2019-02-21T01:06:25.208Z,20.27
2019-02-21T01:08:53.524Z,18.90
2019-02-21T01:11:21.808Z,18.63
2019-02-21T01:13:50.104Z,19.40
2019-02-21T01:16:18.387Z,22.07
2019-02-21T01:18:46.774Z,19.50
2019-02-21T01:21:19.278Z,18.93
2019-02-21T01:23:51.647Z,19.57
2019-02-21T01:26:24.386Z,19.00
2019-02-21T01:28:52.721Z,20.67
2019-02-21T01:31:22.679Z,19.30
2019-02-21T01:33:50.945Z,20.47
2019-02-21T01:36:22.336Z,19.97
2019-02-21T01:38:50.620Z,20.37
2019-02-21T01:41:21.145Z,21.27
2019-02-21T01:43:49.760Z,22.07
2019-02-21T01:46:21.523Z,21.90
2019-02-21T01:48:54.679Z,21.23
2019-02-21T01:51:26.249Z,21.67
2019-02-21T01:53:58.908Z,20.63
2019-02-21T01:56:29.272Z,21.10
2019-02-21T01:59:02.184Z,20.17
2019-02-21T02:01:30.873Z,21.67
2019-02-21T02:04:02.764Z,19.87
2019-02-21T02:06:51.251Z,20.07
2019-02-21T02:09:19.602Z,20.17
2019-02-21T02:11:51.605Z,20.67
2019-02-21T02:14:20.481Z,22.90
2019-02-21T02:16:48.777Z,19.60
2019-02-21T02:19:17.064Z,21.53
2019-02-21T02:21:45.357Z,20.47
2019-02-21T02:24:14.820Z,21.07
2019-02-21T02:26:43.841Z,20.43
2019-02-21T02:29:12.128Z,21.53
2019-02-21T02:31:40.663Z,20.20
2019-02-21T02:34:08.974Z,21.17
2019-02-21T02:36:37.376Z,23.00
2019-02-21T02:39:06.141Z,20.77
2019-02-21T02:41:34.406Z,20.40
2019-02-21T02:44:02.684Z,21.70
2019-02-21T02:46:30.995Z,21.27
2019-02-21T02:48:59.300Z,21.37
2019-02-21T02:51:27.590Z,20.60
2019-02-21T02:53:55.897Z,21.90
2019-02-21T02:56:24.172Z,21.03
2019-02-21T02:58:52.474Z,22.77
2019-02-21T03:01:20.818Z,20.20
2019-02-21T03:03:49.111Z,20.80
2019-02-21T03:06:17.408Z,22.43
2019-02-21T03:08:45.683Z,21.20
2019-02-21T03:11:13.965Z,20.60
2019-02-21T03:13:42.236Z,23.47
2019-02-21T03:16:10.560Z,21.60
2019-02-21T03:18:38.850Z,21.63
2019-02-21T03:21:07.148Z,21.47
2019-02-21T03:23:35.427Z,22.83
2019-02-21T03:26:03.758Z,22.50
2019-02-21T03:28:32.031Z,21.57
2019-02-21T03:31:00.339Z,21.73
2019-02-21T03:33:28.688Z,22.07
2019-02-21T03:35:57.521Z,22.63
2019-02-21T03:38:25.798Z,23.80
2019-02-21T03:40:54.058Z,25.40
2019-02-21T03:43:22.342Z,22.70
2019-02-21T03:45:50.626Z,25.33
2019-02-21T03:48:18.906Z,23.33
2019-02-21T03:50:47.211Z,23.47
2019-02-21T03:53:15.497Z,24.43
2019-02-21T03:55:43.797Z,23.50
2019-02-21T03:58:12.364Z,24.20
2019-02-21T04:00:40.655Z,23.07
2019-02-21T04:03:08.939Z,24.63
2019-02-21T04:05:37.213Z,24.07
2019-02-21T04:08:05.574Z,23.40
2019-02-21T04:10:33.865Z,23.70
2019-02-21T04:13:02.135Z,22.83
2019-02-21T04:15:30.582Z,22.33
2019-02-21T04:17:58.869Z,23.70
2019-02-21T04:20:27.153Z,22.70
2019-02-21T04:22:55.416Z,28.30
2019-02-21T04:25:23.810Z,23.90
2019-02-21T04:27:52.068Z,24.27
2019-02-21T04:30:20.364Z,24.00
2019-02-21T04:32:48.638Z,25.83
2019-02-21T04:35:16.925Z,23.03
2019-02-21T04:37:45.203Z,22.53
2019-02-21T04:40:13.470Z,24.20
2019-02-21T04:42:41.752Z,23.23
2019-02-21T04:45:10.079Z,25.20
2019-02-21T04:47:38.346Z,23.83
2019-02-21T04:50:06.995Z,25.37
2019-02-21T04:52:35.316Z,23.03
2019-02-21T04:55:03.887Z,22.00
2019-02-21T04:57:32.158Z,23.23
2019-02-21T05:00:00.459Z,22.67
2019-02-21T05:02:29.745Z,23.40
2019-02-21T05:04:58.061Z,23.73
2019-02-21T05:07:26.590Z,23.70
2019-02-21T05:09:58.247Z,24.33
2019-02-21T05:12:25.454Z,26.73
2019-02-21T05:14:53.739Z,25.73
2019-02-21T05:17:22.579Z,28.20
2019-02-21T05:19:50.858Z,26.70
2019-02-21T05:22:19.161Z,26.37
2019-02-21T05:24:47.441Z,25.23
2019-02-21T05:27:19.773Z,28.43
2019-02-21T05:29:48.067Z,26.57
2019-02-21T05:32:20.419Z,26.10
2019-02-21T05:34:52.815Z,25.27
2019-02-21T05:37:25.242Z,27.27
2019-02-21T05:39:55.153Z,26.83
2019-02-21T05:42:33.941Z,25.63
2019-02-21T05:45:10.973Z,29.70
2019-02-21T05:47:53.614Z,26.53
2019-02-21T05:50:26.250Z,24.10
2019-02-21T05:53:01.898Z,30.33
2019-02-21T05:55:43.615Z,24.47
2019-02-21T05:58:22.538Z,27.57
2019-02-21T06:01:08.589Z,25.43
2019-02-21T06:03:54.856Z,28.00
2019-02-21T06:06:41.132Z,26.37
2019-02-21T06:09:17.025Z,26.33
2019-02-21T06:11:46.969Z,26.60
2019-02-21T06:14:22.566Z,25.63
2019-02-21T06:16:58.394Z,27.70
2019-02-21T06:19:28.319Z,26.87
2019-02-21T06:22:09.729Z,25.10
2019-02-21T06:24:42.011Z,26.77
2019-02-21T06:27:26.756Z,27.53
2019-02-21T06:29:56.683Z,24.67
2019-02-21T06:32:24.954Z,25.50
2019-02-21T06:34:53.242Z,25.53
2019-02-21T06:37:21.524Z,26.97
2019-02-21T06:39:49.782Z,27.40
2019-02-21T06:42:18.086Z,26.33
2019-02-21T06:44:46.358Z,25.70
2019-02-21T06:47:15.753Z,26.17
2019-02-21T06:49:44.032Z,26.60
2019-02-21T06:52:12.312Z,24.43
2019-02-21T06:54:40.580Z,25.93
2019-02-21T06:57:08.908Z,25.43
2019-02-21T06:59:42.458Z,25.30
2019-02-21T07:02:07.208Z,25.57
2019-02-21T07:04:35.514Z,27.07
2019-02-21T07:07:03.791Z,27.63
2019-02-21T07:09:32.166Z,24.20
2019-02-21T07:12:00.476Z,22.80
2019-02-21T07:14:28.764Z,27.57
2019-02-21T07:16:57.024Z,25.77
2019-02-21T07:19:25.319Z,25.43
2019-02-21T07:21:53.594Z,27.27
2019-02-21T07:24:22.157Z,25.97
2019-02-21T07:26:50.448Z,27.03
2019-02-21T07:29:18.732Z,26.57
2019-02-21T07:31:49.299Z,26.60
2019-02-21T07:34:17.112Z,28.93
2019-02-21T07:36:45.412Z,26.90
2019-02-21T07:39:18.358Z,27.20
2019-02-21T07:41:43.733Z,36.10
2019-02-21T07:44:12.634Z,26.33
2019-02-21T07:46:40.949Z,29.17
2019-02-21T07:49:09.258Z,27.20
2019-02-21T07:51:37.583Z,28.13
2019-02-21T07:54:05.980Z,27.33
2019-02-21T07:56:41.546Z,27.43
2019-02-21T07:59:04.212Z,27.87
2019-02-21T08:01:32.494Z,27.03
2019-02-21T08:04:00.789Z,27.90
2019-02-21T08:06:29.075Z,27.37
2019-02-21T08:08:57.358Z,29.00
2019-02-21T08:11:25.656Z,27.13
2019-02-21T08:13:53.918Z,36.70
2019-02-21T08:16:22.209Z,28.53
2019-02-21T08:18:50.492Z,29.97
2019-02-21T08:21:18.791Z,28.53
2019-02-21T08:23:50.435Z,31.13
2019-02-21T08:26:19.885Z,30.30
2019-02-21T08:28:47.103Z,28.30
2019-02-21T08:31:15.568Z,28.73
2019-02-21T08:34:04.397Z,30.03
2019-02-21T08:36:32.806Z,30.33
2019-02-21T08:39:01.111Z,29.97
2019-02-21T08:41:29.387Z,29.47
2019-02-21T08:43:57.679Z,30.63
2019-02-21T08:46:25.964Z,30.63
2019-02-21T08:48:54.255Z,32.23
2019-02-21T08:51:22.523Z,28.47
2019-02-21T08:53:50.790Z,31.47
2019-02-21T08:56:19.072Z,31.10
2019-02-21T08:58:47.374Z,30.57
2019-02-21T09:01:15.651Z,30.30
2019-02-21T09:03:43.954Z,30.93
2019-02-21T09:06:12.219Z,29.30
2019-02-21T09:08:40.489Z,31.07
2019-02-21T09:11:08.784Z,30.93
2019-02-21T09:13:37.095Z,30.40
2019-02-21T09:16:05.389Z,28.40
2019-02-21T09:18:33.671Z,31.13
2019-02-21T09:21:01.938Z,31.03
2019-02-21T09:23:30.232Z,31.27
2019-02-21T09:25:58.519Z,29.50
2019-02-21T09:28:26.821Z,29.60
2019-02-21T09:30:55.108Z,30.50
2019-02-21T09:33:23.398Z,30.60
2019-02-21T09:35:51.678Z,30.03
2019-02-21T09:38:19.973Z,32.60
2019-02-21T09:40:48.251Z,29.03
2019-02-21T09:43:16.537Z,28.90
2019-02-21T09:45:44.820Z,33.00
2019-02-21T09:48:13.087Z,30.80
2019-02-21T09:50:41.384Z,33.40
2019-02-21T09:53:09.652Z,38.00
2019-02-21T09:55:38.055Z,32.40
2019-02-21T09:58:06.408Z,29.57
2019-02-21T10:00:35.982Z,30.90
2019-02-21T10:03:04.362Z,32.43
2019-02-21T10:05:32.726Z,31.30
2019-02-21T10:08:01.053Z,32.00
2019-02-21T10:10:29.328Z,29.47
2019-02-21T10:12:57.681Z,30.43
2019-02-21T10:15:25.956Z,32.10
2019-02-21T10:17:54.239Z,30.60
2019-02-21T10:20:22.879Z,40.20
2019-02-21T10:22:51.247Z,30.57
2019-02-21T10:25:23.322Z,34.03
2019-02-21T10:27:51.776Z,31.00
2019-02-21T10:30:21.779Z,31.77
2019-02-21T10:32:50.166Z,33.10
2019-02-21T10:35:18.467Z,31.53
2019-02-21T10:37:46.743Z,32.30
2019-02-21T10:40:15.958Z,32.63
2019-02-21T10:42:44.299Z,33.10
2019-02-21T10:45:20.909Z,36.90
2019-02-21T10:47:49.273Z,33.90
2019-02-21T10:50:19.016Z,33.47
2019-02-21T10:52:47.670Z,33.67
2019-02-21T10:55:16.924Z,32.37
2019-02-21T10:57:45.726Z,32.97
2019-02-21T11:00:20.210Z,34.63
2019-02-21T11:02:48.506Z,32.17
2019-02-21T11:05:16.815Z,33.67
2019-02-21T11:07:45.193Z,35.03
2019-02-21T11:10:19.460Z,36.00
2019-02-21T11:12:47.732Z,33.30
2019-02-21T11:15:18.428Z,31.37
2019-02-21T11:17:46.725Z,36.13
2019-02-21T11:20:17.045Z,35.03
2019-02-21T11:22:45.306Z,36.70
2019-02-21T11:25:13.674Z,33.83
2019-02-21T11:27:42.089Z,34.97
2019-02-21T11:30:15.673Z,34.60
2019-02-21T11:32:44.010Z,34.70
2019-02-21T11:35:12.358Z,33.07
2019-02-21T11:37:44.459Z,33.23
2019-02-21T11:43:16.005Z,32.50
2019-02-21T11:45:53.605Z,31.87
2019-02-21T11:48:14.346Z,34.93
2019-02-21T11:50:42.649Z,32.17
2019-02-21T11:53:10.980Z,33.63
2019-02-21T11:55:39.272Z,33.83
2019-02-21T11:58:07.567Z,31.07
2019-02-21T12:00:35.924Z,32.93
2019-02-21T12:03:08.549Z,30.80
2019-02-21T12:05:40.201Z,33.13
2019-02-21T12:08:08.574Z,35.13
2019-02-21T12:10:37.033Z,33.03
2019-02-21T12:13:05.399Z,33.93
2019-02-21T12:15:33.678Z,31.63
2019-02-21T12:18:01.955Z,32.10
2019-02-21T12:20:30.239Z,31.77
2019-02-21T12:22:58.514Z,31.67
2019-02-21T12:25:26.809Z,32.10
2019-02-21T12:27:55.086Z,33.30
2019-02-21T12:30:23.374Z,32.13
2019-02-21T12:32:51.634Z,31.63
2019-02-21T12:35:29.269Z,33.50
2019-02-21T12:37:49.921Z,30.97
2019-02-21T12:40:22.440Z,32.83
2019-02-21T12:42:50.704Z,31.27
2019-02-21T12:45:22.005Z,28.43
2019-02-21T12:47:53.571Z,32.00
2019-02-21T12:50:20.314Z,30.00
2019-02-21T12:52:48.628Z,32.10
2019-02-21T12:55:27.050Z,31.20
2019-02-21T12:57:46.903Z,30.87
2019-02-21T13:00:19.629Z,30.47
2019-02-21T13:02:47.962Z,30.40
2019-02-21T13:05:16.232Z,33.10
2019-02-21T13:07:44.524Z,34.50
2019-02-21T13:10:17.863Z,33.87
2019-02-21T13:12:46.153Z,31.67
2019-02-21T13:15:21.344Z,30.03
2019-02-21T13:18:01.779Z,30.87
2019-02-21T13:20:30.240Z,29.97
2019-02-21T13:22:58.541Z,29.17
2019-02-21T13:25:26.821Z,31.50
2019-02-21T13:27:55.105Z,30.30
2019-02-21T13:30:23.411Z,29.50
2019-02-21T13:32:51.682Z,31.87
2019-02-21T13:35:19.954Z,29.83
2019-02-21T13:37:48.228Z,34.73
2019-02-21T13:40:17.249Z,31.53
2019-02-21T13:42:45.534Z,32.00
2019-02-21T13:45:17.452Z,31.63
2019-02-21T13:47:45.575Z,30.60
2019-02-21T13:50:16.472Z,29.90
2019-02-21T13:52:44.814Z,29.10
2019-02-21T13:55:13.183Z,30.90
2019-02-21T13:57:41.532Z,29.00
2019-02-21T14:00:18.567Z,28.40
2019-02-21T14:02:46.851Z,29.20
2019-02-21T14:05:15.226Z,28.80
2019-02-21T14:07:43.534Z,29.00
2019-02-21T14:10:13.469Z,29.87
2019-02-21T14:12:41.831Z,29.57
2019-02-21T14:15:18.737Z,27.57
2019-02-21T14:17:47.080Z,27.00
2019-02-21T14:20:15.373Z,28.07
2019-02-21T14:22:43.710Z,26.83
2019-02-21T14:25:12.021Z,28.53
2019-02-21T14:27:40.298Z,33.97
2019-02-21T14:30:14.465Z,29.93
2019-02-21T14:32:42.740Z,28.37
2019-02-21T14:35:12.584Z,28.23
2019-02-21T14:37:40.854Z,29.60
2019-02-21T14:40:11.408Z,28.33
2019-02-21T14:42:40.283Z,27.43
2019-02-21T14:45:16.346Z,29.40
2019-02-21T14:47:44.627Z,28.47
2019-02-21T14:50:13.318Z,28.23
2019-02-21T14:52:41.617Z,27.87
2019-02-21T14:55:12.910Z,25.77
2019-02-21T14:57:41.489Z,26.43
2019-02-21T15:00:13.522Z,25.23
2019-02-21T15:02:41.818Z,26.97
2019-02-21T15:05:10.274Z,26.17
2019-02-21T15:07:38.482Z,28.30
2019-02-21T15:10:09.114Z,27.97
2019-02-21T15:12:37.408Z,27.83
2019-02-21T15:15:11.160Z,26.43
2019-02-21T15:17:39.458Z,26.50
2019-02-21T15:20:10.449Z,26.93
2019-02-21T15:22:38.756Z,26.97
2019-02-21T15:25:08.681Z,26.87
2019-02-21T15:27:37.003Z,26.53
2019-02-21T15:30:11.127Z,27.73
2019-02-21T15:32:39.397Z,28.50
2019-02-21T15:35:07.771Z,30.80
2019-02-21T15:37:36.112Z,27.43
2019-02-21T15:40:08.732Z,26.87
2019-02-21T15:42:36.453Z,29.33
2019-02-21T15:45:09.707Z,26.90
2019-02-21T15:47:37.915Z,28.87
2019-02-21T15:50:09.194Z,27.10
2019-02-21T15:52:37.498Z,28.03
2019-02-21T15:55:12.663Z,27.57
2019-02-21T15:57:39.188Z,28.70
2019-02-21T16:00:10.260Z,29.53
2019-02-21T16:02:38.554Z,30.17
2019-02-21T16:05:07.870Z,29.03
2019-02-21T16:07:36.142Z,27.80
2019-02-21T16:10:07.649Z,28.53
2019-02-21T16:12:36.128Z,26.37
2019-02-21T16:15:06.830Z,28.30
2019-02-21T16:17:37.075Z,28.73
2019-02-21T16:20:08.429Z,26.67
2019-02-21T16:22:36.896Z,26.37
2019-02-21T16:25:11.045Z,28.50
2019-02-21T16:27:39.378Z,28.23
2019-02-21T16:30:09.716Z,28.00
2019-02-21T16:32:38.002Z,33.43
2019-02-21T16:35:09.726Z,29.10
2019-02-21T16:37:39.651Z,28.37
2019-02-21T16:40:15.744Z,28.37
2019-02-21T16:42:44.081Z,29.37
2019-02-21T16:45:14.549Z,28.57
2019-02-21T16:47:42.908Z,31.80
2019-02-21T16:50:13.326Z,30.00
2019-02-21T16:52:41.634Z,31.03
2019-02-21T16:55:15.639Z,30.10
2019-02-21T16:57:43.961Z,30.53
2019-02-21T17:00:14.844Z,30.43
2019-02-21T17:02:43.131Z,29.17
2019-02-21T17:05:11.486Z,31.23
2019-02-21T17:07:39.796Z,29.93
2019-02-21T17:10:31.646Z,29.47
2019-02-21T17:12:59.941Z,31.73
2019-02-21T17:15:28.206Z,28.90
2019-02-21T17:17:56.587Z,30.73
2019-02-21T17:20:26.790Z,32.87
2019-02-21T17:22:55.133Z,31.57
2019-02-21T17:25:23.412Z,30.37
2019-02-21T17:27:51.689Z,32.07
2019-02-21T17:30:20.922Z,30.50
2019-02-21T17:32:49.259Z,32.80
2019-02-21T17:35:17.544Z,33.17
2019-02-21T17:37:45.904Z,34.17
2019-02-21T17:40:17.010Z,33.00
2019-02-21T17:42:45.385Z,35.23
2019-02-21T17:45:13.737Z,35.30
2019-02-21T17:47:42.007Z,34.73
2019-02-21T17:50:12.346Z,34.30
2019-02-21T17:52:40.648Z,34.67
2019-02-21T17:55:10.458Z,35.80
2019-02-21T17:57:38.822Z,34.67
2019-02-21T18:00:12.937Z,34.90
2019-02-21T18:02:41.207Z,33.37
2019-02-21T18:05:10.634Z,33.27
2019-02-21T18:07:38.916Z,33.30
2019-02-21T18:10:15.784Z,34.90
2019-02-21T18:12:44.060Z,36.53
2019-02-21T18:15:16.285Z,35.40
2019-02-21T18:17:44.536Z,35.30
2019-02-21T18:20:14.264Z,35.90
2019-02-21T18:22:42.567Z,34.63
2019-02-21T18:25:26.272Z,35.57
2019-02-21T18:27:54.610Z,34.93
2019-02-21T18:30:22.890Z,33.93
2019-02-21T18:32:51.173Z,36.00
2019-02-21T18:35:19.434Z,33.37
2019-02-21T18:37:48.073Z,34.50
2019-02-21T18:40:24.916Z,33.27
2019-02-21T18:42:53.201Z,36.50
2019-02-21T18:45:21.504Z,34.43
2019-02-21T18:47:49.849Z,34.27
2019-02-21T18:50:18.267Z,35.33
2019-02-21T18:52:46.569Z,36.20
2019-02-21T18:55:14.964Z,36.70
2019-02-21T18:57:43.265Z,35.47
2019-02-21T19:00:25.840Z,35.13
2019-02-21T19:02:54.245Z,35.37
2019-02-21T19:05:22.543Z,32.40
2019-02-21T19:08:00.383Z,35.03
2019-02-21T19:10:21.913Z,35.00
2019-02-21T19:12:50.197Z,34.23
2019-02-21T19:15:19.740Z,36.27
2019-02-21T19:17:48.097Z,35.13
2019-02-21T19:20:18.143Z,33.83
2019-02-21T19:22:46.405Z,39.10
2019-02-21T19:25:14.965Z,34.23
2019-02-21T19:27:43.267Z,38.03
2019-02-21T19:30:55.052Z,35.60
2019-02-21T19:33:23.429Z,36.10
2019-02-21T19:35:51.751Z,33.97
2019-02-21T19:38:20.090Z,35.27
2019-02-21T19:40:48.365Z,34.43
2019-02-21T19:43:16.671Z,34.33
2019-02-21T19:45:44.965Z,34.43
2019-02-21T19:48:13.268Z,34.83
2019-02-21T19:50:41.633Z,34.60
2019-02-21T19:53:09.946Z,35.10
2019-02-21T19:55:38.249Z,32.90
2019-02-21T19:58:06.709Z,35.73
2019-02-21T20:00:36.830Z,33.63
2019-02-21T20:03:05.326Z,34.90
2019-02-21T20:05:33.863Z,35.23
2019-02-21T20:08:08.664Z,35.90
2019-02-21T20:10:32.161Z,33.67
2019-02-21T20:13:02.222Z,35.20
2019-02-21T20:15:30.496Z,34.50
2019-02-21T20:17:58.828Z,34.43
2019-02-21T20:20:28.648Z,32.70
2019-02-21T20:22:56.927Z,33.00
2019-02-21T20:25:25.237Z,35.30
2019-02-21T20:27:53.513Z,31.90
2019-02-21T20:30:21.826Z,34.57
2019-02-21T20:32:50.081Z,35.37
2019-02-21T20:35:18.372Z,34.50
2019-02-21T20:37:46.648Z,37.63
2019-02-21T20:40:14.951Z,33.27
2019-02-21T20:42:43.216Z,34.60
2019-02-21T20:45:12.936Z,34.73
2019-02-21T20:47:41.406Z,35.47
2019-02-21T20:50:11.623Z,33.93
2019-02-21T20:52:39.983Z,33.80
2019-02-21T20:55:10.007Z,32.67
2019-02-21T20:57:38.290Z,34.73
2019-02-21T21:00:12.618Z,37.33
2019-02-21T21:02:40.957Z,35.17
2019-02-21T21:05:09.313Z,35.33
2019-02-21T21:07:37.651Z,35.10
2019-02-21T21:10:09.446Z,37.20
2019-02-21T21:12:37.873Z,35.60
2019-02-21T21:15:09.528Z,35.73
2019-02-21T21:17:37.679Z,36.97
2019-02-21T21:20:16.654Z,36.60
2019-02-21T21:22:38.827Z,35.30
2019-02-21T21:25:10.246Z,34.77
2019-02-21T21:27:38.810Z,34.90
2019-02-21T21:30:09.825Z,35.20
2019-02-21T21:32:38.132Z,35.37
2019-02-21T21:35:06.591Z,36.07
2019-02-21T21:37:34.888Z,36.83
2019-02-21T21:40:03.535Z,36.43
2019-02-21T21:42:31.852Z,35.00
2019-02-21T21:45:00.326Z,35.50
2019-02-21T21:47:28.671Z,33.67
2019-02-21T21:49:56.961Z,36.77
2019-02-21T21:52:25.292Z,36.60
2019-02-21T21:54:53.567Z,36.40
2019-02-21T21:57:21.862Z,37.20
2019-02-21T21:59:50.227Z,37.67
2019-02-21T22:02:18.499Z,40.87
2019-02-21T22:04:46.873Z,38.80
2019-02-21T22:07:16.835Z,37.20
2019-02-21T22:09:45.107Z,36.93
2019-02-21T22:12:13.397Z,35.87
2019-02-21T22:14:41.680Z,37.57
2019-02-21T22:17:09.958Z,38.80
2019-02-21T22:19:38.264Z,37.43
2019-02-21T22:22:06.555Z,38.20
2019-02-21T22:24:34.829Z,39.40
2019-02-21T22:27:03.104Z,40.00
2019-02-21T22:29:31.396Z,41.03
2019-02-21T22:31:59.755Z,37.77
2019-02-21T22:34:28.052Z,36.27
2019-02-21T22:36:56.326Z,36.53
2019-02-21T22:39:24.620Z,36.53
2019-02-21T22:41:52.882Z,33.73
2019-02-21T22:44:21.172Z,34.40
2019-02-21T22:46:49.447Z,35.53
2019-02-21T22:49:17.704Z,35.70
2019-02-21T22:51:45.994Z,37.27
2019-02-21T22:54:14.262Z,35.93
2019-02-21T22:56:42.825Z,37.50
2019-02-21T22:59:11.207Z,36.53
2019-02-21T23:01:39.553Z,33.83
2019-02-21T23:04:14.168Z,34.20
2019-02-21T23:06:54.663Z,35.97
2019-02-21T23:09:27.576Z,34.80
2019-02-21T23:11:54.325Z,38.40
2019-02-21T23:14:22.606Z,35.60
2019-02-21T23:16:50.872Z,34.13
2019-02-21T23:19:19.164Z,35.07
2019-02-21T23:21:47.452Z,35.70
2019-02-21T23:24:15.837Z,35.10
2019-02-21T23:26:44.112Z,36.43
2019-02-21T23:29:12.373Z,35.50
2019-02-21T23:31:40.736Z,34.67
2019-02-21T23:34:13.589Z,34.73
2019-02-21T23:36:41.872Z,34.37
2019-02-21T23:39:10.150Z,34.33
2019-02-21T23:41:38.428Z,32.27
2019-02-21T23:44:06.784Z,34.63
2019-02-21T23:46:35.068Z,33.50
2019-02-21T23:49:03.350Z,33.63
2019-02-21T23:51:31.644Z,32.87
2019-02-21T23:54:03.019Z,32.60
2019-02-21T23:56:29.953Z,33.60
2019-02-21T23:58:58.233Z,34.60
